createdAt,value
2023-05-19T00:00:58.899Z,86.52
2023-05-19T00:01:58.933Z,87.18
2023-05-19T00:02:58.920Z,86.93
2023-05-19T00:03:58.876Z,87.18
2023-05-19T00:04:58.867Z,86.98
2023-05-19T00:05:58.983Z,85.85
2023-05-19T00:06:58.867Z,85.74
2023-05-19T00:07:58.866Z,85.54
2023-05-19T00:08:58.873Z,85.64
2023-05-19T00:09:58.860Z,85.74
2023-05-19T00:10:58.879Z,85.95
2023-05-19T00:11:58.880Z,85.85
2023-05-19T00:12:58.858Z,85.58
2023-05-19T00:13:58.846Z,85.68
2023-05-19T00:14:58.840Z,85.99
2023-05-19T00:15:58.896Z,85.89
2023-05-19T00:16:58.835Z,86.40
2023-05-19T00:17:58.895Z,86.85
2023-05-19T00:18:58.851Z,87.63
2023-05-19T00:19:58.826Z,88.14
2023-05-19T00:20:58.824Z,88.35
2023-05-19T00:21:58.827Z,87.77
2023-05-19T00:22:58.813Z,88.04
2023-05-19T00:23:58.813Z,87.53
2023-05-19T00:24:58.805Z,88.14
2023-05-19T00:25:58.803Z,88.35
2023-05-19T00:26:58.824Z,88.24
2023-05-19T00:27:58.797Z,87.26
2023-05-19T00:28:58.790Z,86.54
2023-05-19T00:29:58.798Z,86.33
2023-05-19T00:30:58.792Z,87.05
2023-05-19T00:31:58.802Z,86.75
2023-05-19T00:32:58.840Z,86.99
2023-05-19T00:33:58.794Z,87.05
2023-05-19T00:34:58.773Z,87.71
2023-05-19T00:35:58.777Z,87.57
2023-05-19T00:36:58.766Z,87.82
2023-05-19T00:37:58.764Z,87.51
2023-05-19T00:38:58.778Z,87.77
2023-05-19T00:39:58.764Z,87.92
2023-05-19T00:40:58.761Z,87.37
2023-05-19T00:41:58.748Z,87.26
2023-05-19T00:42:58.770Z,86.79
2023-05-19T00:43:58.753Z,86.68
2023-05-19T00:44:58.744Z,86.17
2023-05-19T00:45:58.741Z,85.86
2023-05-19T00:46:58.813Z,85.55
2023-05-19T00:47:58.769Z,85.86
2023-05-19T00:48:58.729Z,85.55
2023-05-19T00:49:58.735Z,84.12
2023-05-19T00:50:58.725Z,84.94
2023-05-19T00:51:58.718Z,84.56
2023-05-19T00:52:58.711Z,84.88
2023-05-19T00:53:58.713Z,85.49
2023-05-19T00:54:58.708Z,85.80
2023-05-19T00:55:58.856Z,86.62
2023-05-19T00:56:58.704Z,86.72
2023-05-19T00:57:58.701Z,87.55
2023-05-19T00:58:58.728Z,88.57
2023-05-19T00:59:58.689Z,88.57
2023-05-19T01:00:58.720Z,89.40
2023-05-19T01:01:58.684Z,89.70
2023-05-19T01:02:58.743Z,89.81
2023-05-19T01:03:58.931Z,89.19
2023-05-19T01:04:58.673Z,89.29
2023-05-19T01:05:58.668Z,89.60
2023-05-19T01:06:58.665Z,89.29
2023-05-19T01:07:58.663Z,88.78
2023-05-19T01:08:58.659Z,88.89
2023-05-19T01:09:58.660Z,88.68
2023-05-19T01:10:58.654Z,88.78
2023-05-19T01:11:58.648Z,88.27
2023-05-19T01:12:58.647Z,88.68
2023-05-19T01:13:58.645Z,88.89
2023-05-19T01:14:58.661Z,89.29
2023-05-19T01:15:58.684Z,88.98
2023-05-19T01:16:58.656Z,88.78
2023-05-19T01:17:58.676Z,88.78
2023-05-19T01:18:58.654Z,88.92
2023-05-19T01:19:58.620Z,88.68
2023-05-19T01:20:58.619Z,88.89
2023-05-19T01:21:58.612Z,88.89
2023-05-19T01:22:58.610Z,89.60
2023-05-19T01:23:58.607Z,89.70
2023-05-19T01:24:58.604Z,89.60
2023-05-19T01:25:58.597Z,89.70
2023-05-19T01:26:58.604Z,88.98
2023-05-19T01:27:58.597Z,88.78
2023-05-19T01:28:58.590Z,88.20
2023-05-19T01:29:58.583Z,87.79
2023-05-19T01:30:58.636Z,88.00
2023-05-19T01:31:58.610Z,88.00
2023-05-19T01:32:58.652Z,87.79
2023-05-19T01:33:58.571Z,88.31
2023-05-19T01:34:58.575Z,87.59
2023-05-19T01:35:58.567Z,88.04
2023-05-19T01:36:58.565Z,88.51
2023-05-19T01:37:58.577Z,88.72
2023-05-19T01:38:58.554Z,88.62
2023-05-19T01:39:58.565Z,89.75
2023-05-19T01:40:58.546Z,88.82
2023-05-19T01:41:58.546Z,88.82
2023-05-19T01:42:58.547Z,88.51
2023-05-19T01:43:58.535Z,88.35
2023-05-19T01:44:58.543Z,89.48
2023-05-19T01:45:58.617Z,89.23
2023-05-19T01:46:58.663Z,89.17
2023-05-19T01:47:58.599Z,89.58
2023-05-19T01:48:58.524Z,88.86
2023-05-19T01:49:58.519Z,88.86
2023-05-19T01:50:58.514Z,88.56
2023-05-19T01:51:58.514Z,88.49
2023-05-19T01:52:58.512Z,89.28
2023-05-19T01:53:58.500Z,89.58
2023-05-19T01:54:58.498Z,89.79
2023-05-19T01:55:58.853Z,89.62
2023-05-19T01:56:58.489Z,90.45
2023-05-19T01:57:58.483Z,90.66
2023-05-19T01:58:58.493Z,91.27
2023-05-19T01:59:58.479Z,92.50
2023-05-19T02:00:58.520Z,93.02
2023-05-19T02:01:58.471Z,94.01
2023-05-19T02:02:58.526Z,94.21
2023-05-19T02:03:58.522Z,94.21
2023-05-19T02:04:58.479Z,94.36
2023-05-19T02:05:58.464Z,94.21
2023-05-19T02:06:58.473Z,94.11
2023-05-19T02:07:58.453Z,93.70
2023-05-19T02:08:58.454Z,93.18
2023-05-19T02:09:58.446Z,93.80
2023-05-19T02:10:58.437Z,93.55
2023-05-19T02:11:58.438Z,94.17
2023-05-19T02:12:58.431Z,94.07
2023-05-19T02:13:58.425Z,94.07
2023-05-19T02:14:58.431Z,93.65
2023-05-19T02:15:58.470Z,94.27
2023-05-19T02:16:58.416Z,94.17
2023-05-19T02:17:58.437Z,94.07
2023-05-19T02:18:58.471Z,93.76
2023-05-19T02:19:58.396Z,93.96
2023-05-19T02:20:58.406Z,94.07
2023-05-19T02:21:58.389Z,93.96
2023-05-19T02:22:58.764Z,94.27
2023-05-19T02:23:58.391Z,93.65
2023-05-19T02:24:58.382Z,93.44
2023-05-19T02:25:58.374Z,93.65
2023-05-19T02:26:58.384Z,93.76
2023-05-19T02:27:58.372Z,93.65
2023-05-19T02:28:58.362Z,93.76
2023-05-19T02:29:58.374Z,93.76
2023-05-19T02:30:58.364Z,93.96
2023-05-19T02:31:58.390Z,93.96
2023-05-19T02:32:58.360Z,93.86
2023-05-19T02:33:58.349Z,93.35
2023-05-19T02:34:58.375Z,94.17
2023-05-19T02:35:58.343Z,93.96
2023-05-19T02:36:58.337Z,93.65
2023-05-19T02:37:58.328Z,92.63
2023-05-19T02:38:58.329Z,92.32
2023-05-19T02:39:58.324Z,92.32
2023-05-19T02:40:58.322Z,92.32
2023-05-19T02:41:58.313Z,91.08
2023-05-19T02:42:58.330Z,91.14
2023-05-19T02:43:58.313Z,90.98
2023-05-19T02:44:58.313Z,89.34
2023-05-19T02:45:58.352Z,89.34
2023-05-19T02:46:58.296Z,90.51
2023-05-19T02:47:58.322Z,90.47
2023-05-19T02:48:58.290Z,91.02
2023-05-19T02:49:58.283Z,91.13
2023-05-19T02:50:58.324Z,91.95
2023-05-19T02:51:58.279Z,92.36
2023-05-19T02:52:58.287Z,92.87
2023-05-19T02:53:58.278Z,92.36
2023-05-19T02:54:58.264Z,92.52
2023-05-19T02:55:58.266Z,92.57
2023-05-19T02:56:58.259Z,91.80
2023-05-19T02:57:58.259Z,91.19
2023-05-19T02:58:58.254Z,90.92
2023-05-19T02:59:58.248Z,90.61
2023-05-19T03:00:58.242Z,89.89
2023-05-19T03:01:58.265Z,89.89
2023-05-19T03:02:58.363Z,91.02
2023-05-19T03:03:58.292Z,90.61
2023-05-19T03:04:58.231Z,91.53
2023-05-19T03:05:58.227Z,91.85
2023-05-19T03:06:58.245Z,92.01
2023-05-19T03:07:58.226Z,92.05
2023-05-19T03:08:58.214Z,91.80
2023-05-19T03:09:58.221Z,91.23
2023-05-19T03:10:58.201Z,90.47
2023-05-19T03:11:58.197Z,89.95
2023-05-19T03:12:58.195Z,90.51
2023-05-19T03:13:58.199Z,90.72
2023-05-19T03:14:58.195Z,90.92
2023-05-19T03:15:58.237Z,91.02
2023-05-19T03:16:58.252Z,91.44
2023-05-19T03:17:58.200Z,91.44
2023-05-19T03:18:58.217Z,91.23
2023-05-19T03:19:58.167Z,91.13
2023-05-19T03:20:58.166Z,91.53
2023-05-19T03:21:58.168Z,91.74
2023-05-19T03:22:58.191Z,91.95
2023-05-19T03:23:58.156Z,91.13
2023-05-19T03:24:58.154Z,91.95
2023-05-19T03:25:58.147Z,91.17
2023-05-19T03:26:58.170Z,90.75
2023-05-19T03:27:58.139Z,91.06
2023-05-19T03:28:58.135Z,90.66
2023-05-19T03:29:58.129Z,91.27
2023-05-19T03:30:58.131Z,91.38
2023-05-19T03:31:58.131Z,91.38
2023-05-19T03:32:58.164Z,91.47
2023-05-19T03:33:58.112Z,91.68
2023-05-19T03:34:58.144Z,91.17
2023-05-19T03:35:58.113Z,91.17
2023-05-19T03:36:58.122Z,91.27
2023-05-19T03:37:58.101Z,91.78
2023-05-19T03:38:58.115Z,92.30
2023-05-19T03:39:58.100Z,92.82
2023-05-19T03:40:58.093Z,92.50
2023-05-19T03:41:58.090Z,92.50
2023-05-19T03:42:58.086Z,92.10
2023-05-19T03:43:58.090Z,92.30
2023-05-19T03:44:58.076Z,92.10
2023-05-19T03:45:58.111Z,91.99
2023-05-19T03:46:58.072Z,91.02
2023-05-19T03:47:58.110Z,90.96
2023-05-19T03:48:58.065Z,91.13
2023-05-19T03:49:58.054Z,90.51
2023-05-19T03:50:58.050Z,89.94
2023-05-19T03:51:58.045Z,89.79
2023-05-19T03:52:58.042Z,89.69
2023-05-19T03:53:58.043Z,90.09
2023-05-19T03:54:58.065Z,90.51
2023-05-19T03:55:58.030Z,90.51
2023-05-19T03:56:58.026Z,90.51
2023-05-19T03:57:58.019Z,90.41
2023-05-19T03:58:58.057Z,90.67
2023-05-19T03:59:58.017Z,90.06
2023-05-19T04:00:58.367Z,90.26
2023-05-19T04:01:58.110Z,91.19
2023-05-19T04:02:58.068Z,90.88
2023-05-19T04:03:58.072Z,91.39
2023-05-19T04:04:58.030Z,91.49
2023-05-19T04:05:57.991Z,92.01
2023-05-19T04:06:58.023Z,92.52
2023-05-19T04:07:57.981Z,92.07
2023-05-19T04:08:57.980Z,91.97
2023-05-19T04:09:57.981Z,92.58
2023-05-19T04:10:58.004Z,92.07
2023-05-19T04:11:57.972Z,92.48
2023-05-19T04:12:57.965Z,92.48
2023-05-19T04:13:57.964Z,92.38
2023-05-19T04:14:57.961Z,92.69
2023-05-19T04:15:58.026Z,92.64
2023-05-19T04:16:57.949Z,91.72
2023-05-19T04:17:57.997Z,92.03
2023-05-19T04:18:58.070Z,92.23
2023-05-19T04:19:57.933Z,91.93
2023-05-19T04:20:57.932Z,92.19
2023-05-19T04:21:57.925Z,91.51
2023-05-19T04:22:57.923Z,91.27
2023-05-19T04:23:57.928Z,91.27
2023-05-19T04:24:57.915Z,91.00
2023-05-19T04:25:57.919Z,90.65
2023-05-19T04:26:57.930Z,90.75
2023-05-19T04:27:57.984Z,90.95
2023-05-19T04:28:57.901Z,90.85
2023-05-19T04:29:57.904Z,91.27
2023-05-19T04:30:57.938Z,91.57
2023-05-19T04:31:57.890Z,91.57
2023-05-19T04:32:57.914Z,92.40
2023-05-19T04:33:57.883Z,91.88
2023-05-19T04:34:57.880Z,92.25
2023-05-19T04:35:57.873Z,92.25
2023-05-19T04:36:57.877Z,92.14
2023-05-19T04:37:57.868Z,92.25
2023-05-19T04:38:57.865Z,90.91
2023-05-19T04:39:57.863Z,90.20
2023-05-19T04:40:57.857Z,90.71
2023-05-19T04:41:57.851Z,90.61
2023-05-19T04:42:57.884Z,91.02
2023-05-19T04:43:57.850Z,90.87
2023-05-19T04:44:57.840Z,90.77
2023-05-19T04:45:57.839Z,90.87
2023-05-19T04:46:57.914Z,90.87
2023-05-19T04:47:57.896Z,90.67
2023-05-19T04:48:57.842Z,90.67
2023-05-19T04:49:57.819Z,90.87
2023-05-19T04:50:57.829Z,90.67
2023-05-19T04:51:57.820Z,89.95
2023-05-19T04:52:57.815Z,89.90
2023-05-19T04:53:57.834Z,89.95
2023-05-19T04:54:57.806Z,90.05
2023-05-19T04:55:57.806Z,90.32
2023-05-19T04:56:57.803Z,90.42
2023-05-19T04:57:57.801Z,89.81
2023-05-19T04:58:57.821Z,89.60
2023-05-19T04:59:57.810Z,89.19
2023-05-19T05:00:57.785Z,89.54
2023-05-19T05:01:57.877Z,89.50
2023-05-19T05:02:57.880Z,89.90
2023-05-19T05:03:57.843Z,90.32
2023-05-19T05:04:57.779Z,90.32
2023-05-19T05:05:57.960Z,90.83
2023-05-19T05:06:57.764Z,90.83
2023-05-19T05:07:57.754Z,90.11
2023-05-19T05:08:57.755Z,90.32
2023-05-19T05:09:57.750Z,90.42
2023-05-19T05:10:57.738Z,90.11
2023-05-19T05:11:57.749Z,90.01
2023-05-19T05:12:57.764Z,90.69
2023-05-19T05:13:57.739Z,90.28
2023-05-19T05:14:57.799Z,90.07
2023-05-19T05:15:57.797Z,90.17
2023-05-19T05:16:57.739Z,90.28
2023-05-19T05:17:57.810Z,89.97
2023-05-19T05:18:57.782Z,89.97
2023-05-19T05:19:57.717Z,89.45
2023-05-19T05:20:57.713Z,89.45
2023-05-19T05:21:57.728Z,89.36
2023-05-19T05:22:57.700Z,89.36
2023-05-19T05:23:57.707Z,89.45
2023-05-19T05:24:57.703Z,89.97
2023-05-19T05:25:57.696Z,89.97
2023-05-19T05:26:57.684Z,90.07
2023-05-19T05:27:57.689Z,90.03
2023-05-19T05:28:57.695Z,90.34
2023-05-19T05:29:59.266Z,90.64
2023-05-19T05:30:57.791Z,90.23
2023-05-19T05:31:57.898Z,90.13
2023-05-19T05:32:57.725Z,90.23
2023-05-19T05:33:57.685Z,90.54
2023-05-19T05:34:57.664Z,90.54
2023-05-19T05:35:57.657Z,90.54
2023-05-19T05:36:57.648Z,90.75
2023-05-19T05:37:57.664Z,90.54
2023-05-19T05:38:57.643Z,90.23
2023-05-19T05:39:57.652Z,90.34
2023-05-19T05:40:57.630Z,90.54
2023-05-19T05:41:57.633Z,90.54
2023-05-19T05:42:57.629Z,90.54
2023-05-19T05:43:57.626Z,90.30
2023-05-19T05:44:57.620Z,90.30
2023-05-19T05:45:57.637Z,90.75
2023-05-19T05:46:57.743Z,89.78
2023-05-19T05:47:57.623Z,89.27
2023-05-19T05:48:57.609Z,89.47
2023-05-19T05:49:57.610Z,89.68
2023-05-19T05:50:57.604Z,90.19
2023-05-19T05:52:05.808Z,90.30
2023-05-19T05:52:57.594Z,89.37
2023-05-19T05:53:57.591Z,89.33
2023-05-19T05:54:57.589Z,89.23
2023-05-19T05:55:57.591Z,89.33
2023-05-19T05:56:57.584Z,89.33
2023-05-19T05:57:57.612Z,89.64
2023-05-19T05:58:57.577Z,88.10
2023-05-19T05:59:57.589Z,86.98
2023-05-19T06:00:57.591Z,87.70
2023-05-19T06:01:57.615Z,88.37
2023-05-19T06:02:57.766Z,87.45
2023-05-19T06:03:57.565Z,87.85
2023-05-19T06:04:57.599Z,88.37
2023-05-19T06:05:57.905Z,88.98
2023-05-19T06:06:57.551Z,88.47
2023-05-19T06:07:57.557Z,88.88
2023-05-19T06:08:57.546Z,89.09
2023-05-19T06:09:57.544Z,88.33
2023-05-19T06:10:57.540Z,88.98
2023-05-19T06:11:57.549Z,88.94
2023-05-19T06:12:57.532Z,89.25
2023-05-19T06:13:57.534Z,87.82
2023-05-19T06:14:57.564Z,87.71
2023-05-19T06:15:58.473Z,88.02
2023-05-19T06:16:57.523Z,87.92
2023-05-19T06:17:57.548Z,88.12
2023-05-19T06:18:57.713Z,85.77
2023-05-19T06:19:57.512Z,87.00
2023-05-19T06:20:57.509Z,88.08
2023-05-19T06:21:57.513Z,88.29
2023-05-19T06:22:57.506Z,89.00
2023-05-19T06:23:57.509Z,88.79
2023-05-19T06:24:57.501Z,88.59
2023-05-19T06:25:57.495Z,89.20
2023-05-19T06:26:57.500Z,88.96
2023-05-19T06:27:57.506Z,89.98
2023-05-19T06:28:57.492Z,89.78
2023-05-19T06:29:57.484Z,89.37
2023-05-19T06:30:57.516Z,89.43
2023-05-19T06:31:57.519Z,88.96
2023-05-19T06:32:57.537Z,88.65
2023-05-19T06:33:57.469Z,88.96
2023-05-19T06:34:57.497Z,89.53
2023-05-19T06:35:57.471Z,90.45
2023-05-19T06:36:57.460Z,90.25
2023-05-19T06:37:57.471Z,88.82
2023-05-19T06:38:57.454Z,88.00
2023-05-19T06:39:57.463Z,88.17
2023-05-19T06:40:57.446Z,88.26
2023-05-19T06:41:57.457Z,87.14
2023-05-19T06:42:57.457Z,87.14
2023-05-19T06:43:57.438Z,87.55
2023-05-19T06:44:57.443Z,88.17
2023-05-19T06:45:57.446Z,87.35
2023-05-19T06:46:57.476Z,87.24
2023-05-19T06:47:57.456Z,87.82
2023-05-19T06:48:57.424Z,84.25
2023-05-19T06:49:57.429Z,83.67
2023-05-19T06:50:57.448Z,83.63
2023-05-19T06:51:57.420Z,83.43
2023-05-19T06:52:57.419Z,85.27
2023-05-19T06:53:57.413Z,86.59
2023-05-19T06:54:57.406Z,85.88
2023-05-19T06:55:59.541Z,85.77
2023-05-19T06:56:57.400Z,85.13
2023-05-19T06:57:57.406Z,85.33
2023-05-19T06:58:57.402Z,84.82
2023-05-19T06:59:57.401Z,84.41
2023-05-19T07:00:57.395Z,84.82
2023-05-19T07:01:57.451Z,85.33
2023-05-19T07:02:57.455Z,85.74
2023-05-19T07:03:57.535Z,86.10
2023-05-19T07:04:57.397Z,84.47
2023-05-19T07:05:57.832Z,81.52
2023-05-19T07:06:57.397Z,83.70
2023-05-19T07:07:57.379Z,85.08
2023-05-19T07:08:57.367Z,85.80
2023-05-19T07:09:57.367Z,83.96
2023-05-19T07:10:57.365Z,82.13
2023-05-19T07:11:57.371Z,78.97
2023-05-19T07:12:57.361Z,78.36
2023-05-19T07:13:57.357Z,79.27
2023-05-19T07:14:57.355Z,78.05
2023-05-19T07:15:57.370Z,78.87
2023-05-19T07:16:57.352Z,80.70
2023-05-19T07:17:57.366Z,81.62
2023-05-19T07:18:57.464Z,82.50
2023-05-19T07:19:57.346Z,81.99
2023-05-19T07:20:57.349Z,81.99
2023-05-19T07:21:57.340Z,84.12
2023-05-19T07:22:57.385Z,84.64
2023-05-19T07:23:57.332Z,82.70
2023-05-19T07:24:57.347Z,83.01
2023-05-19T07:25:57.328Z,80.36
2023-05-19T07:26:57.336Z,81.85
2023-05-19T07:27:57.334Z,82.50
2023-05-19T07:28:57.320Z,82.26
2023-05-19T07:29:57.316Z,83.48
2023-05-19T07:30:57.317Z,82.97
2023-05-19T07:31:57.384Z,78.08
2023-05-19T07:32:57.335Z,80.73
2023-05-19T07:33:57.375Z,80.22
2023-05-19T07:34:57.317Z,76.04
2023-05-19T07:35:57.301Z,76.15
2023-05-19T07:36:57.296Z,74.93
2023-05-19T07:37:57.293Z,81.10
2023-05-19T07:38:57.364Z,79.47
2023-05-19T07:39:57.300Z,81.20
2023-05-19T07:40:57.288Z,81.81
2023-05-19T07:41:57.287Z,80.59
2023-05-19T07:42:57.277Z,78.66
2023-05-19T07:43:57.286Z,75.40
2023-05-19T07:44:57.275Z,75.30
2023-05-19T07:45:57.307Z,72.75
2023-05-19T07:46:57.271Z,76.59
2023-05-19T07:47:57.380Z,76.38
2023-05-19T07:48:57.265Z,80.24
2023-05-19T07:49:57.265Z,80.85
2023-05-19T07:50:57.276Z,79.94
2023-05-19T07:51:57.260Z,73.33
2023-05-19T07:52:57.256Z,75.16
2023-05-19T07:53:57.254Z,76.25
2023-05-19T07:54:57.276Z,77.29
2023-05-19T07:55:58.650Z,80.62
2023-05-19T07:56:57.244Z,80.00
2023-05-19T07:57:57.264Z,77.47
2023-05-19T07:58:57.244Z,75.23
2023-05-19T07:59:57.246Z,79.29
2023-05-19T08:00:57.236Z,72.48
2023-05-19T08:01:57.240Z,73.09
2023-05-19T08:02:57.374Z,72.48
2023-05-19T08:03:57.278Z,73.60
2023-05-19T08:04:57.311Z,73.91
2023-05-19T08:05:57.243Z,74.21
2023-05-19T08:06:57.222Z,72.89
2023-05-19T08:07:57.227Z,75.23
2023-05-19T08:08:57.223Z,75.84
2023-05-19T08:09:57.228Z,73.46
2023-05-19T08:10:57.661Z,75.84
2023-05-19T08:11:57.214Z,74.48
2023-05-19T08:12:57.211Z,71.94
2023-05-19T08:13:57.212Z,74.79
2023-05-19T08:14:58.968Z,73.16
2023-05-19T08:15:57.248Z,72.65
2023-05-19T08:16:57.209Z,75.40
2023-05-19T08:17:57.236Z,74.55
2023-05-19T08:18:57.254Z,76.88
2023-05-19T08:19:57.198Z,75.36
2023-05-19T08:20:57.204Z,73.22
2023-05-19T08:21:57.199Z,79.18
2023-05-19T08:22:57.199Z,77.97
2023-05-19T08:23:57.269Z,77.25
2023-05-19T08:24:57.189Z,72.17
2023-05-19T08:25:57.193Z,71.97
2023-05-19T08:26:57.287Z,73.70
2023-05-19T08:27:57.195Z,71.47
2023-05-19T08:28:57.189Z,69.20
2023-05-19T08:29:57.186Z,70.52
2023-05-19T08:30:57.236Z,73.87
2023-05-19T08:31:57.247Z,72.96
2023-05-19T08:32:57.214Z,72.65
2023-05-19T08:33:57.176Z,72.92
2023-05-19T08:34:57.185Z,76.20
2023-05-19T08:35:57.178Z,76.78
2023-05-19T08:36:57.172Z,77.08
2023-05-19T08:37:57.170Z,75.25
2023-05-19T08:38:57.170Z,73.22
2023-05-19T08:39:57.174Z,72.21
2023-05-19T08:40:57.168Z,73.93
2023-05-19T08:41:57.168Z,73.43
2023-05-19T08:42:57.190Z,68.43
2023-05-19T08:43:57.162Z,68.26
2023-05-19T08:44:57.164Z,70.25
2023-05-19T08:45:57.156Z,74.81
2023-05-19T08:46:57.192Z,75.22
2023-05-19T08:47:57.221Z,75.52
2023-05-19T08:48:57.159Z,74.41
2023-05-19T08:49:57.155Z,69.84
2023-05-19T08:50:57.149Z,67.92
2023-05-19T08:51:57.151Z,69.34
2023-05-19T08:52:57.150Z,71.57
2023-05-19T08:53:57.150Z,72.78
2023-05-19T08:54:57.151Z,67.21
2023-05-19T08:55:57.144Z,65.69
2023-05-19T08:56:57.133Z,65.39
2023-05-19T08:57:57.136Z,62.75
2023-05-19T08:58:57.269Z,65.69
2023-05-19T08:59:57.138Z,64.47
2023-05-19T09:00:57.203Z,63.73
2023-05-19T09:01:57.127Z,63.63
2023-05-19T09:03:05.958Z,64.17
2023-05-19T09:03:57.179Z,63.86
2023-05-19T09:04:57.189Z,64.34
2023-05-19T09:05:57.127Z,66.37
2023-05-19T09:06:57.119Z,64.44
2023-05-19T09:07:57.127Z,66.47
2023-05-19T09:08:57.113Z,64.24
2023-05-19T09:09:57.116Z,62.52
2023-05-19T09:10:57.263Z,64.34
2023-05-19T09:11:57.113Z,66.97
2023-05-19T09:12:57.135Z,65.05
2023-05-19T09:13:57.105Z,63.73
2023-05-19T09:14:57.220Z,65.96
2023-05-19T09:15:57.112Z,66.27
2023-05-19T09:16:57.156Z,65.96
2023-05-19T09:17:57.151Z,66.09
2023-05-19T09:18:57.156Z,65.18
2023-05-19T09:19:57.100Z,63.53
2023-05-19T09:20:57.098Z,63.83
2023-05-19T09:21:57.091Z,64.17
2023-05-19T09:22:57.089Z,71.13
2023-05-19T09:23:57.089Z,67.41
2023-05-19T09:24:57.085Z,66.91
2023-05-19T09:25:57.095Z,73.09
2023-05-19T09:26:58.010Z,73.76
2023-05-19T09:27:57.084Z,72.24
2023-05-19T09:28:57.078Z,73.39
2023-05-19T09:29:57.074Z,73.39
2023-05-19T09:30:57.104Z,70.05
2023-05-19T09:31:57.147Z,69.54
2023-05-19T09:32:57.123Z,69.03
2023-05-19T09:33:57.069Z,69.74
2023-05-19T09:34:57.088Z,64.58
2023-05-19T09:35:57.097Z,66.30
2023-05-19T09:36:57.065Z,66.91
2023-05-19T09:37:57.058Z,64.17
2023-05-19T09:38:57.062Z,65.79
2023-05-19T09:39:57.058Z,67.41
2023-05-19T09:40:57.069Z,67.51
2023-05-19T09:41:57.056Z,64.75
2023-05-19T09:42:57.054Z,64.47
2023-05-19T09:43:57.051Z,66.40
2023-05-19T09:44:57.049Z,67.99
2023-05-19T09:45:57.086Z,65.66
2023-05-19T09:46:57.083Z,68.49
2023-05-19T09:47:57.071Z,70.29
2023-05-19T09:48:57.045Z,65.56
2023-05-19T09:49:57.040Z,66.57
2023-05-19T09:50:57.040Z,69.00
2023-05-19T09:51:57.048Z,64.75
2023-05-19T09:52:57.034Z,65.25
2023-05-19T09:53:57.031Z,64.04
2023-05-19T09:54:57.045Z,65.86
2023-05-19T09:55:57.025Z,61.71
2023-05-19T09:56:57.026Z,65.12
2023-05-19T09:57:57.070Z,69.31
2023-05-19T09:58:57.023Z,68.16
2023-05-19T09:59:57.023Z,63.32
2023-05-19T10:00:57.089Z,64.24
2023-05-19T10:01:57.083Z,62.41
2023-05-19T10:02:57.058Z,64.04
2023-05-19T10:03:57.021Z,67.89
2023-05-19T10:04:57.089Z,67.38
2023-05-19T10:05:57.013Z,69.07
2023-05-19T10:06:57.012Z,72.75
2023-05-19T10:07:57.012Z,73.22
2023-05-19T10:08:57.010Z,74.33
2023-05-19T10:09:58.602Z,74.44
2023-05-19T10:10:57.006Z,75.45
2023-05-19T10:11:57.005Z,69.27
2023-05-19T10:12:56.999Z,66.16
2023-05-19T10:13:57.023Z,64.44
2023-05-19T10:14:56.996Z,64.64
2023-05-19T10:15:59.450Z,69.71
2023-05-19T10:16:57.094Z,65.56
2023-05-19T10:17:57.001Z,64.14
2023-05-19T10:18:57.119Z,65.76
2023-05-19T10:19:56.983Z,68.70
2023-05-19T10:20:56.989Z,71.33
2023-05-19T10:21:57.036Z,69.71
2023-05-19T10:22:56.982Z,71.84
2023-05-19T10:23:56.977Z,74.37
2023-05-19T10:24:56.978Z,75.79
2023-05-19T10:25:57.014Z,75.69
2023-05-19T10:26:56.978Z,69.00
2023-05-19T10:27:56.976Z,67.58
2023-05-19T10:28:56.971Z,66.16
2023-05-19T10:29:56.971Z,64.14
2023-05-19T10:30:56.979Z,64.21
2023-05-19T10:31:57.017Z,64.72
2023-05-19T10:32:56.981Z,64.07
2023-05-19T10:33:56.975Z,66.91
2023-05-19T10:34:56.993Z,70.62
2023-05-19T10:35:56.959Z,70.56
2023-05-19T10:36:56.958Z,66.41
2023-05-19T10:37:56.955Z,65.29
2023-05-19T10:38:56.954Z,65.09
2023-05-19T10:39:56.954Z,62.26
2023-05-19T10:40:56.959Z,63.98
2023-05-19T10:41:56.950Z,67.22
2023-05-19T10:42:56.948Z,69.95
2023-05-19T10:43:56.948Z,69.54
2023-05-19T10:44:56.960Z,68.13
2023-05-19T10:45:56.952Z,66.71
2023-05-19T10:46:57.278Z,66.41
2023-05-19T10:47:57.022Z,61.35
2023-05-19T10:48:56.985Z,62.66
2023-05-19T10:49:56.941Z,61.85
2023-05-19T10:50:57.063Z,65.29
2023-05-19T10:51:56.938Z,62.05
2023-05-19T10:52:56.939Z,63.98
2023-05-19T10:53:56.940Z,62.26
2023-05-19T10:54:56.933Z,62.46
2023-05-19T10:55:56.946Z,61.21
2023-05-19T10:56:56.926Z,61.35
2023-05-19T10:57:57.141Z,62.53
2023-05-19T10:58:57.037Z,63.95
2023-05-19T10:59:56.927Z,64.86
2023-05-19T11:00:56.930Z,62.30
2023-05-19T11:01:57.160Z,66.27
2023-05-19T11:02:56.927Z,63.21
2023-05-19T11:03:56.978Z,65.26
2023-05-19T11:04:56.915Z,66.38
2023-05-19T11:05:56.913Z,64.65
2023-05-19T11:06:56.940Z,66.17
2023-05-19T11:07:56.911Z,63.75
2023-05-19T11:08:56.918Z,62.84
2023-05-19T11:09:56.909Z,62.43
2023-05-19T11:10:56.907Z,65.94
2023-05-19T11:11:56.906Z,64.62
2023-05-19T11:13:56.938Z,64.93
2023-05-19T11:14:56.909Z,62.37
2023-05-19T11:15:56.905Z,62.77
2023-05-19T11:16:57.021Z,71.06
2023-05-19T11:17:56.981Z,70.25
2023-05-19T11:18:56.948Z,69.65
2023-05-19T11:19:56.911Z,61.90
2023-05-19T11:20:57.246Z,64.79
2023-05-19T11:21:56.884Z,65.73
2023-05-19T11:22:57.082Z,69.07
2023-05-19T11:23:56.980Z,68.97
2023-05-19T11:24:56.884Z,63.54
2023-05-19T11:25:56.897Z,64.22
2023-05-19T11:26:56.878Z,62.90
2023-05-19T11:27:56.878Z,63.44
2023-05-19T11:28:56.880Z,63.54
2023-05-19T11:29:56.871Z,61.52
2023-05-19T11:30:56.881Z,63.01
2023-05-19T11:31:56.878Z,65.84
2023-05-19T11:32:56.981Z,63.38
2023-05-19T11:33:56.875Z,65.61
2023-05-19T11:34:56.866Z,63.78
2023-05-19T11:35:56.862Z,61.96
2023-05-19T11:36:56.881Z,64.39
2023-05-19T11:37:56.877Z,63.48
2023-05-19T11:38:56.939Z,62.16
2023-05-19T11:39:56.859Z,59.74
2023-05-19T11:40:56.869Z,62.77
2023-05-19T11:41:56.854Z,60.65
2023-05-19T11:42:56.852Z,61.87
2023-05-19T11:43:56.857Z,60.75
2023-05-19T11:44:56.857Z,64.09
2023-05-19T11:45:56.938Z,65.61
2023-05-19T11:46:56.880Z,64.79
2023-05-19T11:48:02.691Z,66.01
2023-05-19T11:48:56.847Z,65.61
2023-05-19T11:49:56.839Z,65.50
2023-05-19T11:50:56.879Z,65.40
2023-05-19T11:51:56.857Z,61.76
2023-05-19T11:52:56.839Z,62.37
2023-05-19T11:53:56.834Z,63.38
2023-05-19T11:54:56.876Z,63.55
2023-05-19T11:55:56.828Z,63.85
2023-05-19T11:56:56.830Z,67.80
2023-05-19T11:58:56.828Z,68.63
2023-05-19T11:59:56.829Z,68.84
2023-05-19T12:00:56.850Z,69.68
2023-05-19T12:01:56.835Z,69.68
2023-05-19T12:02:56.886Z,69.78
2023-05-19T12:03:56.987Z,64.76
2023-05-19T12:04:56.844Z,63.51
2023-05-19T12:05:56.838Z,64.12
2023-05-19T12:06:56.815Z,62.30
2023-05-19T12:07:56.823Z,62.30
2023-05-19T12:08:56.812Z,62.90
2023-05-19T12:09:56.809Z,65.23
2023-05-19T12:10:56.857Z,68.16
2023-05-19T12:11:56.810Z,63.61
2023-05-19T12:12:56.809Z,66.85
2023-05-19T12:13:56.819Z,67.46
2023-05-19T12:14:56.808Z,67.66
2023-05-19T12:15:56.832Z,64.02
2023-05-19T12:16:56.817Z,64.29
2023-05-19T12:17:56.841Z,65.20
2023-05-19T12:18:56.822Z,61.73
2023-05-19T12:19:56.795Z,60.60
2023-05-19T12:20:56.807Z,62.44
2023-05-19T12:21:56.799Z,63.85
2023-05-19T12:22:56.794Z,63.05
2023-05-19T12:23:56.797Z,61.71
2023-05-19T12:24:56.800Z,65.78
2023-05-19T12:25:57.238Z,63.45
2023-05-19T12:26:56.810Z,62.95
2023-05-19T12:27:57.500Z,61.94
2023-05-19T12:28:56.808Z,62.04
2023-05-19T12:29:56.789Z,62.95
2023-05-19T12:30:56.781Z,60.62
2023-05-19T12:31:56.844Z,66.28
2023-05-19T12:32:56.797Z,67.39
2023-05-19T12:33:56.778Z,63.35
2023-05-19T12:34:56.780Z,64.06
2023-05-19T12:35:56.778Z,66.21
2023-05-19T12:36:56.784Z,63.58
2023-05-19T12:37:56.776Z,63.99
2023-05-19T12:38:56.792Z,63.45
2023-05-19T12:39:56.786Z,62.24
2023-05-19T12:40:56.782Z,67.19
2023-05-19T12:41:56.766Z,65.57
2023-05-19T12:42:56.926Z,64.16
2023-05-19T12:43:56.760Z,65.67
2023-05-19T12:44:56.768Z,67.29
2023-05-19T12:45:56.837Z,67.22
2023-05-19T12:46:56.764Z,67.32
2023-05-19T12:47:56.984Z,66.72
2023-05-19T12:48:56.760Z,65.40
2023-05-19T12:49:56.760Z,69.65
2023-05-19T12:50:56.752Z,69.68
2023-05-19T12:51:56.756Z,68.97
2023-05-19T12:52:56.755Z,66.04
2023-05-19T12:53:56.755Z,63.41
2023-05-19T12:54:56.797Z,63.31